sensor_id;sensor_type;location;lat;lon;timestamp;P1;durP1;ratioP1;P2;durP2;ratioP2
44722;SDS011;30451;48.638;10.624;2023-01-05T00:01:20;4.97;;;3.20;;
44722;SDS011;30451;48.638;10.624;2023-01-05T00:03:46;5.13;;;3.20;;
44722;SDS011;30451;48.638;10.624;2023-01-05T00:06:13;4.53;;;3.15;;
44722;SDS011;30451;48.638;10.624;2023-01-05T00:08:39;5.93;;;3.50;;
44722;SDS011;30451;48.638;10.624;2023-01-05T00:11:06;5.18;;;2.97;;
44722;SDS011;30451;48.638;10.624;2023-01-05T00:13:59;5.00;;;3.15;;
44722;SDS011;30451;48.638;10.624;2023-01-05T00:16:44;5.15;;;3.20;;
44722;SDS011;30451;48.638;10.624;2023-01-05T00:19:28;5.55;;;3.65;;
44722;SDS011;30451;48.638;10.624;2023-01-05T00:24:54;4.38;;;2.63;;
44722;SDS011;30451;48.638;10.624;2023-01-05T00:27:30;4.60;;;2.85;;
44722;SDS011;30451;48.638;10.624;2023-01-05T00:29:57;4.60;;;3.08;;
44722;SDS011;30451;48.638;10.624;2023-01-05T00:32:23;4.63;;;3.05;;
44722;SDS011;30451;48.638;10.624;2023-01-05T00:34:49;4.60;;;2.78;;
44722;SDS011;30451;48.638;10.624;2023-01-05T00:37:18;4.70;;;3.10;;
44722;SDS011;30451;48.638;10.624;2023-01-05T00:39:44;4.88;;;3.25;;
44722;SDS011;30451;48.638;10.624;2023-01-05T00:42:09;5.05;;;2.85;;
44722;SDS011;30451;48.638;10.624;2023-01-05T00:44:35;4.60;;;2.85;;
44722;SDS011;30451;48.638;10.624;2023-01-05T00:47:00;3.92;;;2.67;;
44722;SDS011;30451;48.638;10.624;2023-01-05T00:49:26;4.65;;;3.08;;
44722;SDS011;30451;48.638;10.624;2023-01-05T00:51:51;5.22;;;3.00;;
44722;SDS011;30451;48.638;10.624;2023-01-05T00:54:17;4.88;;;2.80;;
44722;SDS011;30451;48.638;10.624;2023-01-05T00:56:43;4.93;;;3.00;;
44722;SDS011;30451;48.638;10.624;2023-01-05T00:59:13;3.95;;;2.70;;
44722;SDS011;30451;48.638;10.624;2023-01-05T01:01:39;4.32;;;2.83;;
44722;SDS011;30451;48.638;10.624;2023-01-05T01:04:04;5.07;;;2.55;;
44722;SDS011;30451;48.638;10.624;2023-01-05T01:06:30;4.68;;;2.90;;
44722;SDS011;30451;48.638;10.624;2023-01-05T01:08:57;4.53;;;2.67;;
44722;SDS011;30451;48.638;10.624;2023-01-05T01:11:22;4.53;;;2.75;;
44722;SDS011;30451;48.638;10.624;2023-01-05T01:13:48;4.97;;;2.80;;
44722;SDS011;30451;48.638;10.624;2023-01-05T01:16:14;4.03;;;2.60;;
44722;SDS011;30451;48.638;10.624;2023-01-05T01:18:40;4.32;;;2.55;;
44722;SDS011;30451;48.638;10.624;2023-01-05T01:21:07;5.25;;;3.28;;
44722;SDS011;30451;48.638;10.624;2023-01-05T01:23:33;4.60;;;2.80;;
44722;SDS011;30451;48.638;10.624;2023-01-05T01:26:05;3.55;;;2.20;;
44722;SDS011;30451;48.638;10.624;2023-01-05T01:28:32;4.07;;;2.67;;
44722;SDS011;30451;48.638;10.624;2023-01-05T01:30:58;3.85;;;2.30;;
44722;SDS011;30451;48.638;10.624;2023-01-05T01:33:23;4.00;;;2.67;;
44722;SDS011;30451;48.638;10.624;2023-01-05T01:35:49;4.65;;;2.53;;
44722;SDS011;30451;48.638;10.624;2023-01-05T01:38:15;3.55;;;2.40;;
44722;SDS011;30451;48.638;10.624;2023-01-05T01:40:41;3.92;;;2.47;;
44722;SDS011;30451;48.638;10.624;2023-01-05T01:43:16;4.00;;;2.38;;
44722;SDS011;30451;48.638;10.624;2023-01-05T01:46:01;3.92;;;2.40;;
44722;SDS011;30451;48.638;10.624;2023-01-05T01:48:27;4.25;;;2.45;;
44722;SDS011;30451;48.638;10.624;2023-01-05T01:50:52;3.95;;;2.47;;
44722;SDS011;30451;48.638;10.624;2023-01-05T01:53:25;4.85;;;2.90;;
44722;SDS011;30451;48.638;10.624;2023-01-05T01:55:57;4.13;;;2.30;;
44722;SDS011;30451;48.638;10.624;2023-01-05T01:58:26;4.07;;;2.42;;
44722;SDS011;30451;48.638;10.624;2023-01-05T02:00:54;3.83;;;2.53;;
44722;SDS011;30451;48.638;10.624;2023-01-05T02:03:20;3.80;;;2.40;;
44722;SDS011;30451;48.638;10.624;2023-01-05T02:05:46;3.63;;;2.33;;
44722;SDS011;30451;48.638;10.624;2023-01-05T02:08:12;4.03;;;2.40;;
44722;SDS011;30451;48.638;10.624;2023-01-05T02:10:54;4.10;;;2.40;;
44722;SDS011;30451;48.638;10.624;2023-01-05T02:24:58;3.15;;;2.05;;
44722;SDS011;30451;48.638;10.624;2023-01-05T02:30:43;4.63;;;2.20;;
44722;SDS011;30451;48.638;10.624;2023-01-05T02:35:55;3.58;;;2.17;;
44722;SDS011;30451;48.638;10.624;2023-01-05T02:38:30;3.40;;;2.03;;
44722;SDS011;30451;48.638;10.624;2023-01-05T02:41:17;2.80;;;1.80;;
44722;SDS011;30451;48.638;10.624;2023-01-05T02:43:47;4.15;;;2.20;;
44722;SDS011;30451;48.638;10.624;2023-01-05T02:46:13;2.92;;;2.00;;
44722;SDS011;30451;48.638;10.624;2023-01-05T02:48:39;3.50;;;2.30;;
44722;SDS011;30451;48.638;10.624;2023-01-05T02:51:07;3.95;;;1.90;;
44722;SDS011;30451;48.638;10.624;2023-01-05T02:53:39;3.13;;;2.00;;
44722;SDS011;30451;48.638;10.624;2023-01-05T02:56:11;2.97;;;1.83;;
44722;SDS011;30451;48.638;10.624;2023-01-05T03:01:12;2.90;;;1.95;;
44722;SDS011;30451;48.638;10.624;2023-01-05T03:03:57;3.80;;;2.05;;
44722;SDS011;30451;48.638;10.624;2023-01-05T03:08:57;3.00;;;1.88;;
44722;SDS011;30451;48.638;10.624;2023-01-05T03:11:26;3.33;;;1.98;;
44722;SDS011;30451;48.638;10.624;2023-01-05T03:14:32;3.20;;;2.10;;
44722;SDS011;30451;48.638;10.624;2023-01-05T03:17:03;2.90;;;1.80;;
44722;SDS011;30451;48.638;10.624;2023-01-05T03:19:34;3.70;;;2.30;;
44722;SDS011;30451;48.638;10.624;2023-01-05T03:22:10;2.75;;;1.70;;
44722;SDS011;30451;48.638;10.624;2023-01-05T03:24:58;2.75;;;1.70;;
44722;SDS011;30451;48.638;10.624;2023-01-05T03:27:42;3.03;;;2.10;;
44722;SDS011;30451;48.638;10.624;2023-01-05T03:30:31;3.88;;;2.15;;
44722;SDS011;30451;48.638;10.624;2023-01-05T03:33:28;3.00;;;1.98;;
44722;SDS011;30451;48.638;10.624;2023-01-05T03:36:20;3.63;;;1.70;;
44722;SDS011;30451;48.638;10.624;2023-01-05T03:38:48;3.38;;;2.10;;
44722;SDS011;30451;48.638;10.624;2023-01-05T03:41:16;2.97;;;1.75;;
44722;SDS011;30451;48.638;10.624;2023-01-05T03:43:44;2.92;;;1.70;;
44722;SDS011;30451;48.638;10.624;2023-01-05T03:46:15;2.90;;;1.77;;
44722;SDS011;30451;48.638;10.624;2023-01-05T03:48:44;3.25;;;1.83;;
44722;SDS011;30451;48.638;10.624;2023-01-05T03:51:10;3.22;;;1.70;;
44722;SDS011;30451;48.638;10.624;2023-01-05T03:53:37;2.53;;;1.63;;
44722;SDS011;30451;48.638;10.624;2023-01-05T03:56:02;3.80;;;2.08;;
44722;SDS011;30451;48.638;10.624;2023-01-05T03:58:28;2.50;;;1.50;;
44722;SDS011;30451;48.638;10.624;2023-01-05T04:00:54;2.25;;;1.55;;
44722;SDS011;30451;48.638;10.624;2023-01-05T04:03:19;2.95;;;1.75;;
44722;SDS011;30451;48.638;10.624;2023-01-05T04:05:45;2.95;;;1.60;;
44722;SDS011;30451;48.638;10.624;2023-01-05T04:08:11;2.67;;;1.80;;
44722;SDS011;30451;48.638;10.624;2023-01-05T04:10:36;2.92;;;1.45;;
44722;SDS011;30451;48.638;10.624;2023-01-05T04:13:02;2.80;;;1.58;;
44722;SDS011;30451;48.638;10.624;2023-01-05T04:15:28;2.58;;;1.63;;
44722;SDS011;30451;48.638;10.624;2023-01-05T04:17:53;2.80;;;1.50;;
44722;SDS011;30451;48.638;10.624;2023-01-05T04:20:19;2.28;;;1.48;;
44722;SDS011;30451;48.638;10.624;2023-01-05T04:22:45;2.58;;;1.65;;
44722;SDS011;30451;48.638;10.624;2023-01-05T04:25:10;2.67;;;1.55;;
44722;SDS011;30451;48.638;10.624;2023-01-05T04:27:36;2.75;;;1.45;;
44722;SDS011;30451;48.638;10.624;2023-01-05T04:30:03;2.00;;;1.38;;
44722;SDS011;30451;48.638;10.624;2023-01-05T04:32:30;2.38;;;1.50;;
44722;SDS011;30451;48.638;10.624;2023-01-05T04:34:55;2.85;;;1.60;;
44722;SDS011;30451;48.638;10.624;2023-01-05T04:37:21;2.42;;;1.40;;
44722;SDS011;30451;48.638;10.624;2023-01-05T04:39:47;2.47;;;1.40;;
44722;SDS011;30451;48.638;10.624;2023-01-05T04:42:12;2.38;;;1.50;;
44722;SDS011;30451;48.638;10.624;2023-01-05T04:44:38;2.63;;;1.27;;
44722;SDS011;30451;48.638;10.624;2023-01-05T04:47:03;2.45;;;1.50;;
44722;SDS011;30451;48.638;10.624;2023-01-05T04:49:29;2.35;;;1.35;;
44722;SDS011;30451;48.638;10.624;2023-01-05T04:51:55;2.28;;;1.40;;
44722;SDS011;30451;48.638;10.624;2023-01-05T04:54:20;2.25;;;1.33;;
44722;SDS011;30451;48.638;10.624;2023-01-05T04:56:46;2.40;;;1.30;;
44722;SDS011;30451;48.638;10.624;2023-01-05T04:59:11;2.42;;;1.42;;
44722;SDS011;30451;48.638;10.624;2023-01-05T05:01:37;2.25;;;1.45;;
44722;SDS011;30451;48.638;10.624;2023-01-05T05:04:03;2.40;;;1.50;;
44722;SDS011;30451;48.638;10.624;2023-01-05T05:06:28;2.40;;;1.30;;
44722;SDS011;30451;48.638;10.624;2023-01-05T05:08:54;2.53;;;1.50;;
44722;SDS011;30451;48.638;10.624;2023-01-05T05:11:20;2.17;;;1.35;;
44722;SDS011;30451;48.638;10.624;2023-01-05T05:13:45;2.10;;;1.30;;
44722;SDS011;30451;48.638;10.624;2023-01-05T05:16:11;1.95;;;1.27;;
44722;SDS011;30451;48.638;10.624;2023-01-05T05:18:36;2.15;;;1.40;;
44722;SDS011;30451;48.638;10.624;2023-01-05T05:21:02;2.13;;;1.25;;
44722;SDS011;30451;48.638;10.624;2023-01-05T05:23:28;2.38;;;1.42;;
44722;SDS011;30451;48.638;10.624;2023-01-05T05:25:53;2.33;;;1.40;;
44722;SDS011;30451;48.638;10.624;2023-01-05T05:28:19;2.13;;;1.30;;
44722;SDS011;30451;48.638;10.624;2023-01-05T05:30:47;2.28;;;1.38;;
44722;SDS011;30451;48.638;10.624;2023-01-05T05:33:13;1.58;;;1.08;;
44722;SDS011;30451;48.638;10.624;2023-01-05T05:35:39;1.95;;;1.10;;
44722;SDS011;30451;48.638;10.624;2023-01-05T05:38:05;2.38;;;1.30;;
44722;SDS011;30451;48.638;10.624;2023-01-05T05:40:31;2.25;;;1.25;;
44722;SDS011;30451;48.638;10.624;2023-01-05T05:42:56;2.45;;;1.35;;
44722;SDS011;30451;48.638;10.624;2023-01-05T05:45:22;1.88;;;1.20;;
44722;SDS011;30451;48.638;10.624;2023-01-05T05:47:47;2.08;;;1.13;;
44722;SDS011;30451;48.638;10.624;2023-01-05T05:50:13;2.85;;;1.38;;
44722;SDS011;30451;48.638;10.624;2023-01-05T05:52:38;1.80;;;1.20;;
44722;SDS011;30451;48.638;10.624;2023-01-05T05:55:04;1.58;;;1.00;;
44722;SDS011;30451;48.638;10.624;2023-01-05T05:57:30;2.13;;;1.20;;
44722;SDS011;30451;48.638;10.624;2023-01-05T05:59:56;1.75;;;1.15;;
44722;SDS011;30451;48.638;10.624;2023-01-05T06:02:22;2.20;;;1.33;;
44722;SDS011;30451;48.638;10.624;2023-01-05T06:04:47;1.70;;;1.13;;
44722;SDS011;30451;48.638;10.624;2023-01-05T06:07:13;1.85;;;1.20;;
44722;SDS011;30451;48.638;10.624;2023-01-05T06:09:38;1.75;;;1.10;;
44722;SDS011;30451;48.638;10.624;2023-01-05T06:12:04;1.77;;;1.08;;
44722;SDS011;30451;48.638;10.624;2023-01-05T06:14:30;1.35;;;0.90;;
44722;SDS011;30451;48.638;10.624;2023-01-05T06:16:55;1.50;;;1.00;;
44722;SDS011;30451;48.638;10.624;2023-01-05T06:19:21;2.13;;;1.20;;
44722;SDS011;30451;48.638;10.624;2023-01-05T06:21:46;1.55;;;1.00;;
44722;SDS011;30451;48.638;10.624;2023-01-05T06:24:12;1.70;;;1.00;;
44722;SDS011;30451;48.638;10.624;2023-01-05T06:26:37;1.85;;;1.10;;
44722;SDS011;30451;48.638;10.624;2023-01-05T06:29:03;1.80;;;1.13;;
44722;SDS011;30451;48.638;10.624;2023-01-05T06:31:29;2.05;;;1.20;;
44722;SDS011;30451;48.638;10.624;2023-01-05T06:33:55;1.60;;;1.00;;
44722;SDS011;30451;48.638;10.624;2023-01-05T06:36:20;1.85;;;1.10;;
44722;SDS011;30451;48.638;10.624;2023-01-05T06:38:46;1.85;;;1.05;;
44722;SDS011;30451;48.638;10.624;2023-01-05T06:41:11;1.67;;;1.10;;
44722;SDS011;30451;48.638;10.624;2023-01-05T06:43:37;1.70;;;0.90;;
44722;SDS011;30451;48.638;10.624;2023-01-05T06:46:02;1.70;;;1.00;;
44722;SDS011;30451;48.638;10.624;2023-01-05T06:48:28;1.67;;;0.95;;
44722;SDS011;30451;48.638;10.624;2023-01-05T06:50:54;1.67;;;1.00;;
44722;SDS011;30451;48.638;10.624;2023-01-05T06:53:19;1.58;;;1.02;;
44722;SDS011;30451;48.638;10.624;2023-01-05T06:55:45;1.65;;;1.00;;
44722;SDS011;30451;48.638;10.624;2023-01-05T06:58:10;1.65;;;1.00;;
44722;SDS011;30451;48.638;10.624;2023-01-05T07:00:36;1.25;;;0.82;;
44722;SDS011;30451;48.638;10.624;2023-01-05T07:03:02;1.48;;;0.88;;
44722;SDS011;30451;48.638;10.624;2023-01-05T07:05:27;1.60;;;1.00;;
44722;SDS011;30451;48.638;10.624;2023-01-05T07:07:53;1.45;;;1.00;;
44722;SDS011;30451;48.638;10.624;2023-01-05T07:10:19;1.58;;;1.00;;
44722;SDS011;30451;48.638;10.624;2023-01-05T07:12:44;1.80;;;1.10;;
44722;SDS011;30451;48.638;10.624;2023-01-05T07:15:10;2.00;;;0.90;;
44722;SDS011;30451;48.638;10.624;2023-01-05T07:17:36;1.10;;;0.70;;
44722;SDS011;30451;48.638;10.624;2023-01-05T07:20:02;1.17;;;0.80;;
44722;SDS011;30451;48.638;10.624;2023-01-05T07:22:30;1.10;;;0.80;;
44722;SDS011;30451;48.638;10.624;2023-01-05T07:24:56;1.35;;;0.90;;
44722;SDS011;30451;48.638;10.624;2023-01-05T07:27:23;1.30;;;0.90;;
44722;SDS011;30451;48.638;10.624;2023-01-05T07:29:49;1.75;;;1.00;;
44722;SDS011;30451;48.638;10.624;2023-01-05T07:32:15;1.52;;;0.90;;
44722;SDS011;30451;48.638;10.624;2023-01-05T07:34:40;1.73;;;0.90;;
44722;SDS011;30451;48.638;10.624;2023-01-05T07:37:06;1.30;;;0.90;;
44722;SDS011;30451;48.638;10.624;2023-01-05T07:39:31;1.58;;;0.90;;
44722;SDS011;30451;48.638;10.624;2023-01-05T07:41:57;1.58;;;0.82;;
44722;SDS011;30451;48.638;10.624;2023-01-05T07:44:23;1.48;;;0.90;;
44722;SDS011;30451;48.638;10.624;2023-01-05T07:46:48;1.58;;;0.90;;
44722;SDS011;30451;48.638;10.624;2023-01-05T07:49:14;0.93;;;0.80;;
44722;SDS011;30451;48.638;10.624;2023-01-05T07:51:40;0.98;;;0.73;;
44722;SDS011;30451;48.638;10.624;2023-01-05T07:54:05;1.88;;;0.88;;
44722;SDS011;30451;48.638;10.624;2023-01-05T07:56:31;1.33;;;0.82;;
44722;SDS011;30451;48.638;10.624;2023-01-05T07:58:57;1.45;;;0.90;;
44722;SDS011;30451;48.638;10.624;2023-01-05T08:01:23;1.45;;;0.85;;
44722;SDS011;30451;48.638;10.624;2023-01-05T08:03:49;1.10;;;0.80;;
44722;SDS011;30451;48.638;10.624;2023-01-05T08:06:15;1.48;;;0.90;;
44722;SDS011;30451;48.638;10.624;2023-01-05T08:08:43;1.70;;;1.10;;
44722;SDS011;30451;48.638;10.624;2023-01-05T08:11:09;1.38;;;0.80;;
44722;SDS011;30451;48.638;10.624;2023-01-05T08:13:36;1.52;;;0.98;;
44722;SDS011;30451;48.638;10.624;2023-01-05T08:16:20;1.35;;;0.80;;
44722;SDS011;30451;48.638;10.624;2023-01-05T08:18:46;1.13;;;0.80;;
44722;SDS011;30451;48.638;10.624;2023-01-05T08:21:12;1.27;;;0.80;;
44722;SDS011;30451;48.638;10.624;2023-01-05T08:23:38;2.67;;;1.08;;
44722;SDS011;30451;48.638;10.624;2023-01-05T08:26:04;1.63;;;0.80;;
44722;SDS011;30451;48.638;10.624;2023-01-05T08:28:33;0.82;;;0.70;;
44722;SDS011;30451;48.638;10.624;2023-01-05T08:31:03;1.17;;;0.80;;
44722;SDS011;30451;48.638;10.624;2023-01-05T08:33:31;0.77;;;0.60;;
44722;SDS011;30451;48.638;10.624;2023-01-05T08:35:57;1.20;;;0.80;;
44722;SDS011;30451;48.638;10.624;2023-01-05T08:38:24;1.25;;;0.80;;
44722;SDS011;30451;48.638;10.624;2023-01-05T08:40:49;1.15;;;0.80;;
44722;SDS011;30451;48.638;10.624;2023-01-05T08:43:15;1.00;;;0.70;;
44722;SDS011;30451;48.638;10.624;2023-01-05T08:45:41;1.20;;;0.77;;
44722;SDS011;30451;48.638;10.624;2023-01-05T08:48:07;1.20;;;0.80;;
44722;SDS011;30451;48.638;10.624;2023-01-05T08:50:33;0.85;;;0.65;;
44722;SDS011;30451;48.638;10.624;2023-01-05T08:53:00;1.48;;;0.90;;
44722;SDS011;30451;48.638;10.624;2023-01-05T08:55:25;1.05;;;0.73;;
44722;SDS011;30451;48.638;10.624;2023-01-05T08:57:51;1.33;;;0.80;;
44722;SDS011;30451;48.638;10.624;2023-01-05T09:00:17;1.30;;;0.80;;
44722;SDS011;30451;48.638;10.624;2023-01-05T09:02:45;0.98;;;0.80;;
44722;SDS011;30451;48.638;10.624;2023-01-05T09:05:11;1.10;;;0.70;;
44722;SDS011;30451;48.638;10.624;2023-01-05T09:07:37;0.80;;;0.70;;
44722;SDS011;30451;48.638;10.624;2023-01-05T09:10:02;1.17;;;0.80;;
44722;SDS011;30451;48.638;10.624;2023-01-05T09:12:29;0.98;;;0.70;;
44722;SDS011;30451;48.638;10.624;2023-01-05T09:14:55;1.17;;;0.75;;
44722;SDS011;30451;48.638;10.624;2023-01-05T09:17:20;1.25;;;0.70;;
44722;SDS011;30451;48.638;10.624;2023-01-05T09:19:46;0.77;;;0.60;;
44722;SDS011;30451;48.638;10.624;2023-01-05T09:22:11;0.70;;;0.60;;
44722;SDS011;30451;48.638;10.624;2023-01-05T09:24:37;1.23;;;0.70;;
44722;SDS011;30451;48.638;10.624;2023-01-05T09:27:03;1.08;;;0.68;;
44722;SDS011;30451;48.638;10.624;2023-01-05T09:29:29;1.05;;;0.65;;
44722;SDS011;30451;48.638;10.624;2023-01-05T09:31:55;1.17;;;0.80;;
44722;SDS011;30451;48.638;10.624;2023-01-05T09:34:21;1.00;;;0.70;;
44722;SDS011;30451;48.638;10.624;2023-01-05T09:36:46;0.82;;;0.60;;
44722;SDS011;30451;48.638;10.624;2023-01-05T09:39:12;0.70;;;0.70;;
44722;SDS011;30451;48.638;10.624;2023-01-05T09:44:11;0.80;;;0.60;;
44722;SDS011;30451;48.638;10.624;2023-01-05T09:46:41;0.60;;;0.50;;
44722;SDS011;30451;48.638;10.624;2023-01-05T09:49:12;0.95;;;0.70;;
44722;SDS011;30451;48.638;10.624;2023-01-05T09:51:38;1.15;;;0.70;;
44722;SDS011;30451;48.638;10.624;2023-01-05T09:54:05;0.77;;;0.60;;
44722;SDS011;30451;48.638;10.624;2023-01-05T09:59:02;1.10;;;0.70;;
44722;SDS011;30451;48.638;10.624;2023-01-05T10:01:31;1.25;;;0.70;;
44722;SDS011;30451;48.638;10.624;2023-01-05T10:04:00;0.93;;;0.63;;
44722;SDS011;30451;48.638;10.624;2023-01-05T10:06:29;1.02;;;0.75;;
44722;SDS011;30451;48.638;10.624;2023-01-05T10:08:58;0.98;;;0.70;;
44722;SDS011;30451;48.638;10.624;2023-01-05T10:11:30;1.20;;;0.70;;
44722;SDS011;30451;48.638;10.624;2023-01-05T10:14:27;0.90;;;0.73;;
44722;SDS011;30451;48.638;10.624;2023-01-05T10:16:59;0.73;;;0.60;;
44722;SDS011;30451;48.638;10.624;2023-01-05T10:19:25;1.40;;;0.80;;
44722;SDS011;30451;48.638;10.624;2023-01-05T10:29:51;1.30;;;0.77;;
44722;SDS011;30451;48.638;10.624;2023-01-05T10:35:22;1.17;;;0.60;;
44722;SDS011;30451;48.638;10.624;2023-01-05T10:38:13;1.00;;;0.55;;
44722;SDS011;30451;48.638;10.624;2023-01-05T10:40:54;0.60;;;0.60;;
44722;SDS011;30451;48.638;10.624;2023-01-05T10:46:18;1.15;;;0.77;;
44722;SDS011;30451;48.638;10.624;2023-01-05T10:48:45;1.00;;;0.70;;
44722;SDS011;30451;48.638;10.624;2023-01-05T10:51:11;0.68;;;0.50;;
44722;SDS011;30451;48.638;10.624;2023-01-05T10:53:38;1.15;;;0.70;;
44722;SDS011;30451;48.638;10.624;2023-01-05T10:56:13;0.83;;;0.70;;
44722;SDS011;30451;48.638;10.624;2023-01-05T10:58:41;1.08;;;0.80;;
44722;SDS011;30451;48.638;10.624;2023-01-05T11:01:21;1.23;;;0.70;;
44722;SDS011;30451;48.638;10.624;2023-01-05T11:03:50;0.75;;;0.60;;
44722;SDS011;30451;48.638;10.624;2023-01-05T11:08:52;0.60;;;0.50;;
44722;SDS011;30451;48.638;10.624;2023-01-05T11:11:24;1.00;;;0.75;;
44722;SDS011;30451;48.638;10.624;2023-01-05T11:13:54;0.82;;;0.50;;
44722;SDS011;30451;48.638;10.624;2023-01-05T11:16:22;0.82;;;0.60;;
44722;SDS011;30451;48.638;10.624;2023-01-05T11:19:00;0.77;;;0.57;;
44722;SDS011;30451;48.638;10.624;2023-01-05T11:24:03;0.90;;;0.50;;
44722;SDS011;30451;48.638;10.624;2023-01-05T11:26:53;1.55;;;0.65;;
44722;SDS011;30451;48.638;10.624;2023-01-05T11:29:20;0.93;;;0.68;;
44722;SDS011;30451;48.638;10.624;2023-01-05T11:31:59;0.73;;;0.60;;
44722;SDS011;30451;48.638;10.624;2023-01-05T11:37:25;1.00;;;0.70;;
44722;SDS011;30451;48.638;10.624;2023-01-05T11:44:56;1.35;;;0.68;;
44722;SDS011;30451;48.638;10.624;2023-01-05T11:48:12;0.80;;;0.70;;
44722;SDS011;30451;48.638;10.624;2023-01-05T11:52:38;1.70;;;0.77;;
44722;SDS011;30451;48.638;10.624;2023-01-05T11:55:21;1.08;;;0.70;;
44722;SDS011;30451;48.638;10.624;2023-01-05T11:57:57;1.00;;;0.70;;
44722;SDS011;30451;48.638;10.624;2023-01-05T12:00:41;1.75;;;0.80;;
44722;SDS011;30451;48.638;10.624;2023-01-05T12:18:09;0.98;;;0.68;;
44722;SDS011;30451;48.638;10.624;2023-01-05T12:31:34;1.80;;;0.70;;
44722;SDS011;30451;48.638;10.624;2023-01-05T12:40:02;1.33;;;0.70;;
44722;SDS011;30451;48.638;10.624;2023-01-05T12:45:28;1.05;;;0.70;;
44722;SDS011;30451;48.638;10.624;2023-01-05T12:48:16;1.23;;;0.70;;
44722;SDS011;30451;48.638;10.624;2023-01-05T12:51:07;1.20;;;0.68;;
44722;SDS011;30451;48.638;10.624;2023-01-05T12:53:48;1.55;;;0.80;;
44722;SDS011;30451;48.638;10.624;2023-01-05T12:56:47;2.22;;;1.00;;
44722;SDS011;30451;48.638;10.624;2023-01-05T12:59:28;1.83;;;0.70;;
44722;SDS011;30451;48.638;10.624;2023-01-05T13:07:21;1.80;;;0.80;;
44722;SDS011;30451;48.638;10.624;2023-01-05T13:09:59;1.57;;;0.70;;
44722;SDS011;30451;48.638;10.624;2023-01-05T13:12:30;2.20;;;0.80;;
44722;SDS011;30451;48.638;10.624;2023-01-05T13:15:04;1.63;;;0.75;;
44722;SDS011;30451;48.638;10.624;2023-01-05T13:17:34;2.38;;;0.90;;
44722;SDS011;30451;48.638;10.624;2023-01-05T13:20:15;3.30;;;1.02;;
44722;SDS011;30451;48.638;10.624;2023-01-05T13:25:18;1.90;;;0.80;;
44722;SDS011;30451;48.638;10.624;2023-01-05T13:27:46;2.00;;;0.80;;
44722;SDS011;30451;48.638;10.624;2023-01-05T13:30:18;2.20;;;0.60;;
44722;SDS011;30451;48.638;10.624;2023-01-05T13:41:34;1.45;;;0.80;;
44722;SDS011;30451;48.638;10.624;2023-01-05T13:55:17;1.77;;;0.60;;
44722;SDS011;30451;48.638;10.624;2023-01-05T13:57:46;1.92;;;0.68;;
44722;SDS011;30451;48.638;10.624;2023-01-05T14:00:26;2.05;;;0.60;;
44722;SDS011;30451;48.638;10.624;2023-01-05T14:08:37;2.30;;;0.82;;
44722;SDS011;30451;48.638;10.624;2023-01-05T14:13:46;1.80;;;0.70;;
44722;SDS011;30451;48.638;10.624;2023-01-05T14:24:30;2.30;;;0.88;;
44722;SDS011;30451;48.638;10.624;2023-01-05T14:32:09;1.38;;;0.70;;
44722;SDS011;30451;48.638;10.624;2023-01-05T14:43:24;1.52;;;0.75;;
44722;SDS011;30451;48.638;10.624;2023-01-05T14:48:28;2.25;;;0.80;;
44722;SDS011;30451;48.638;10.624;2023-01-05T14:51:07;2.05;;;0.90;;
44722;SDS011;30451;48.638;10.624;2023-01-05T15:14:31;1.60;;;0.75;;
44722;SDS011;30451;48.638;10.624;2023-01-05T15:19:51;2.50;;;0.90;;
44722;SDS011;30451;48.638;10.624;2023-01-05T15:31:56;3.20;;;1.25;;
44722;SDS011;30451;48.638;10.624;2023-01-05T15:36:56;1.95;;;0.90;;
44722;SDS011;30451;48.638;10.624;2023-01-05T15:39:30;2.97;;;1.10;;
44722;SDS011;30451;48.638;10.624;2023-01-05T15:42:03;1.77;;;0.90;;
44722;SDS011;30451;48.638;10.624;2023-01-05T15:44:33;2.63;;;1.02;;
44722;SDS011;30451;48.638;10.624;2023-01-05T15:47:03;2.30;;;1.00;;
44722;SDS011;30451;48.638;10.624;2023-01-05T15:49:32;2.83;;;1.05;;
44722;SDS011;30451;48.638;10.624;2023-01-05T15:51:58;2.67;;;1.20;;
44722;SDS011;30451;48.638;10.624;2023-01-05T15:54:26;2.50;;;1.05;;
44722;SDS011;30451;48.638;10.624;2023-01-05T15:56:53;1.63;;;0.80;;
44722;SDS011;30451;48.638;10.624;2023-01-05T16:01:53;1.67;;;0.90;;
44722;SDS011;30451;48.638;10.624;2023-01-05T16:04:19;2.05;;;0.80;;
44722;SDS011;30451;48.638;10.624;2023-01-05T16:06:46;2.53;;;1.00;;
44722;SDS011;30451;48.638;10.624;2023-01-05T16:11:46;1.83;;;0.95;;
44722;SDS011;30451;48.638;10.624;2023-01-05T16:14:23;3.55;;;1.17;;
44722;SDS011;30451;48.638;10.624;2023-01-05T16:16:57;2.35;;;1.00;;
44722;SDS011;30451;48.638;10.624;2023-01-05T16:22:21;2.78;;;1.10;;
44722;SDS011;30451;48.638;10.624;2023-01-05T16:27:39;2.33;;;0.90;;
44722;SDS011;30451;48.638;10.624;2023-01-05T16:35:44;3.42;;;1.30;;
44722;SDS011;30451;48.638;10.624;2023-01-05T16:48:44;3.17;;;1.15;;
44722;SDS011;30451;48.638;10.624;2023-01-05T16:51:16;2.17;;;0.90;;
44722;SDS011;30451;48.638;10.624;2023-01-05T16:53:56;2.42;;;1.17;;
44722;SDS011;30451;48.638;10.624;2023-01-05T16:58:57;2.35;;;1.38;;
44722;SDS011;30451;48.638;10.624;2023-01-05T17:01:34;2.63;;;1.10;;
44722;SDS011;30451;48.638;10.624;2023-01-05T17:04:08;3.08;;;1.20;;
44722;SDS011;30451;48.638;10.624;2023-01-05T17:06:38;4.40;;;1.42;;
44722;SDS011;30451;48.638;10.624;2023-01-05T17:09:27;3.83;;;1.40;;
44722;SDS011;30451;48.638;10.624;2023-01-05T17:11:54;2.25;;;1.10;;
44722;SDS011;30451;48.638;10.624;2023-01-05T17:14:20;3.10;;;1.40;;
44722;SDS011;30451;48.638;10.624;2023-01-05T17:16:47;3.15;;;1.05;;
44722;SDS011;30451;48.638;10.624;2023-01-05T17:19:13;2.90;;;1.10;;
44722;SDS011;30451;48.638;10.624;2023-01-05T17:21:42;3.03;;;1.27;;
44722;SDS011;30451;48.638;10.624;2023-01-05T17:24:16;3.70;;;1.20;;
44722;SDS011;30451;48.638;10.624;2023-01-05T17:26:42;4.13;;;1.45;;
44722;SDS011;30451;48.638;10.624;2023-01-05T17:29:09;2.17;;;1.05;;
44722;SDS011;30451;48.638;10.624;2023-01-05T17:31:47;3.67;;;1.17;;
44722;SDS011;30451;48.638;10.624;2023-01-05T17:34:13;2.95;;;1.10;;
44722;SDS011;30451;48.638;10.624;2023-01-05T17:36:39;2.88;;;1.20;;
44722;SDS011;30451;48.638;10.624;2023-01-05T17:39:05;3.95;;;1.48;;
44722;SDS011;30451;48.638;10.624;2023-01-05T17:41:31;2.63;;;1.20;;
44722;SDS011;30451;48.638;10.624;2023-01-05T17:43:56;2.90;;;1.30;;
44722;SDS011;30451;48.638;10.624;2023-01-05T17:46:24;3.37;;;1.40;;
44722;SDS011;30451;48.638;10.624;2023-01-05T17:48:55;3.22;;;1.20;;
44722;SDS011;30451;48.638;10.624;2023-01-05T17:51:25;2.75;;;1.17;;
44722;SDS011;30451;48.638;10.624;2023-01-05T17:53:52;2.47;;;1.15;;
44722;SDS011;30451;48.638;10.624;2023-01-05T17:56:21;2.78;;;1.20;;
44722;SDS011;30451;48.638;10.624;2023-01-05T17:58:47;2.95;;;1.23;;
44722;SDS011;30451;48.638;10.624;2023-01-05T18:01:13;2.33;;;1.40;;
44722;SDS011;30451;48.638;10.624;2023-01-05T18:03:39;2.75;;;1.15;;
44722;SDS011;30451;48.638;10.624;2023-01-05T18:06:05;2.58;;;1.10;;
44722;SDS011;30451;48.638;10.624;2023-01-05T18:08:33;2.47;;;0.98;;
44722;SDS011;30451;48.638;10.624;2023-01-05T18:11:03;2.88;;;1.13;;
44722;SDS011;30451;48.638;10.624;2023-01-05T18:13:30;2.47;;;1.00;;
44722;SDS011;30451;48.638;10.624;2023-01-05T18:15:57;2.10;;;1.10;;
44722;SDS011;30451;48.638;10.624;2023-01-05T18:18:23;3.65;;;1.30;;
44722;SDS011;30451;48.638;10.624;2023-01-05T18:20:50;3.10;;;1.10;;
44722;SDS011;30451;48.638;10.624;2023-01-05T18:23:16;2.78;;;1.20;;
44722;SDS011;30451;48.638;10.624;2023-01-05T18:25:43;3.47;;;1.30;;